sensor_id;sensor_type;location;lat;lon;timestamp;P1;durP1;ratioP1;P2;durP2;ratioP2
53801;SDS011;39709;53.334;6.534;2022-08-19T00:01:13;11.10;;;5.55;;
53801;SDS011;39709;53.334;6.534;2022-08-19T00:03:38;10.13;;;5.03;;
53801;SDS011;39709;53.334;6.534;2022-08-19T00:06:04;10.25;;;4.97;;
53801;SDS011;39709;53.334;6.534;2022-08-19T00:08:30;11.83;;;5.87;;
53801;SDS011;39709;53.334;6.534;2022-08-19T00:10:56;11.30;;;5.93;;
53801;SDS011;39709;53.334;6.534;2022-08-19T00:13:22;9.93;;;6.13;;
53801;SDS011;39709;53.334;6.534;2022-08-19T00:15:48;12.60;;;6.23;;
53801;SDS011;39709;53.334;6.534;2022-08-19T00:18:13;13.73;;;6.53;;
53801;SDS011;39709;53.334;6.534;2022-08-19T00:20:39;10.13;;;6.00;;
53801;SDS011;39709;53.334;6.534;2022-08-19T00:23:05;10.60;;;6.30;;
53801;SDS011;39709;53.334;6.534;2022-08-19T00:25:32;11.35;;;6.53;;
53801;SDS011;39709;53.334;6.534;2022-08-19T00:27:58;13.38;;;6.15;;
53801;SDS011;39709;53.334;6.534;2022-08-19T00:30:24;13.57;;;7.40;;
53801;SDS011;39709;53.334;6.534;2022-08-19T00:32:53;15.32;;;7.38;;
53801;SDS011;39709;53.334;6.534;2022-08-19T00:35:20;11.10;;;6.32;;
53801;SDS011;39709;53.334;6.534;2022-08-19T00:37:47;11.40;;;6.20;;
53801;SDS011;39709;53.334;6.534;2022-08-19T00:40:14;13.65;;;7.20;;
53801;SDS011;39709;53.334;6.534;2022-08-19T00:42:43;11.50;;;6.83;;
53801;SDS011;39709;53.334;6.534;2022-08-19T00:45:15;10.02;;;6.05;;
53801;SDS011;39709;53.334;6.534;2022-08-19T00:47:43;12.40;;;6.68;;
53801;SDS011;39709;53.334;6.534;2022-08-19T00:50:10;13.38;;;7.43;;
53801;SDS011;39709;53.334;6.534;2022-08-19T00:52:40;12.13;;;7.38;;
53801;SDS011;39709;53.334;6.534;2022-08-19T00:55:10;12.23;;;6.63;;
53801;SDS011;39709;53.334;6.534;2022-08-19T00:58:02;10.00;;;6.25;;
53801;SDS011;39709;53.334;6.534;2022-08-19T01:00:30;9.63;;;5.97;;
53801;SDS011;39709;53.334;6.534;2022-08-19T01:03:01;10.40;;;5.75;;
53801;SDS011;39709;53.334;6.534;2022-08-19T01:05:32;13.43;;;6.30;;
53801;SDS011;39709;53.334;6.534;2022-08-19T01:07:59;11.47;;;6.53;;
53801;SDS011;39709;53.334;6.534;2022-08-19T01:10:27;12.82;;;7.32;;
53801;SDS011;39709;53.334;6.534;2022-08-19T01:12:55;13.90;;;7.90;;
53801;SDS011;39709;53.334;6.534;2022-08-19T01:15:24;14.15;;;7.80;;
53801;SDS011;39709;53.334;6.534;2022-08-19T01:17:54;15.10;;;7.20;;
53801;SDS011;39709;53.334;6.534;2022-08-19T01:20:21;13.30;;;7.30;;
53801;SDS011;39709;53.334;6.534;2022-08-19T01:22:49;12.13;;;7.10;;
53801;SDS011;39709;53.334;6.534;2022-08-19T01:25:19;14.88;;;7.80;;
53801;SDS011;39709;53.334;6.534;2022-08-19T01:27:49;15.27;;;7.38;;
53801;SDS011;39709;53.334;6.534;2022-08-19T01:30:20;13.07;;;7.20;;
53801;SDS011;39709;53.334;6.534;2022-08-19T01:32:53;12.38;;;7.30;;
53801;SDS011;39709;53.334;6.534;2022-08-19T01:35:20;11.68;;;7.05;;
53801;SDS011;39709;53.334;6.534;2022-08-19T01:37:56;12.35;;;7.60;;
53801;SDS011;39709;53.334;6.534;2022-08-19T01:40:24;13.90;;;6.85;;
53801;SDS011;39709;53.334;6.534;2022-08-19T01:42:54;14.50;;;8.30;;
53801;SDS011;39709;53.334;6.534;2022-08-19T01:45:20;14.05;;;7.40;;
53801;SDS011;39709;53.334;6.534;2022-08-19T01:47:48;15.18;;;8.25;;
53801;SDS011;39709;53.334;6.534;2022-08-19T01:50:14;13.20;;;7.38;;
53801;SDS011;39709;53.334;6.534;2022-08-19T01:52:41;13.47;;;7.43;;
53801;SDS011;39709;53.334;6.534;2022-08-19T01:55:10;13.07;;;6.70;;
53801;SDS011;39709;53.334;6.534;2022-08-19T01:57:39;15.85;;;7.75;;
53801;SDS011;39709;53.334;6.534;2022-08-19T02:00:11;14.32;;;8.30;;
53801;SDS011;39709;53.334;6.534;2022-08-19T02:02:40;14.45;;;8.10;;
53801;SDS011;39709;53.334;6.534;2022-08-19T02:05:06;13.50;;;7.90;;
53801;SDS011;39709;53.334;6.534;2022-08-19T02:07:33;13.32;;;7.75;;
53801;SDS011;39709;53.334;6.534;2022-08-19T02:10:07;14.90;;;8.60;;
53801;SDS011;39709;53.334;6.534;2022-08-19T02:12:35;14.88;;;7.82;;
53801;SDS011;39709;53.334;6.534;2022-08-19T02:15:01;14.10;;;7.90;;
53801;SDS011;39709;53.334;6.534;2022-08-19T02:17:28;14.15;;;7.30;;
53801;SDS011;39709;53.334;6.534;2022-08-19T02:19:54;15.50;;;7.75;;
53801;SDS011;39709;53.334;6.534;2022-08-19T02:22:21;12.82;;;7.30;;
53801;SDS011;39709;53.334;6.534;2022-08-19T02:24:48;16.60;;;6.80;;
53801;SDS011;39709;53.334;6.534;2022-08-19T02:27:14;14.07;;;6.50;;
53801;SDS011;39709;53.334;6.534;2022-08-19T02:29:40;13.75;;;7.30;;
53801;SDS011;39709;53.334;6.534;2022-08-19T02:32:06;12.50;;;7.27;;
53801;SDS011;39709;53.334;6.534;2022-08-19T02:34:33;12.68;;;7.43;;
53801;SDS011;39709;53.334;6.534;2022-08-19T02:36:59;14.57;;;7.57;;
53801;SDS011;39709;53.334;6.534;2022-08-19T02:39:25;13.80;;;7.45;;
53801;SDS011;39709;53.334;6.534;2022-08-19T02:41:51;14.55;;;7.72;;
53801;SDS011;39709;53.334;6.534;2022-08-19T02:44:17;13.70;;;7.70;;
53801;SDS011;39709;53.334;6.534;2022-08-19T02:46:44;14.57;;;7.63;;
53801;SDS011;39709;53.334;6.534;2022-08-19T02:49:11;13.70;;;7.55;;
53801;SDS011;39709;53.334;6.534;2022-08-19T02:51:39;17.75;;;8.48;;
53801;SDS011;39709;53.334;6.534;2022-08-19T02:54:06;12.93;;;7.78;;
53801;SDS011;39709;53.334;6.534;2022-08-19T02:56:34;13.63;;;7.30;;
53801;SDS011;39709;53.334;6.534;2022-08-19T02:59:01;15.10;;;6.80;;
53801;SDS011;39709;53.334;6.534;2022-08-19T03:01:31;15.95;;;7.28;;
53801;SDS011;39709;53.334;6.534;2022-08-19T03:03:58;14.85;;;7.97;;
53801;SDS011;39709;53.334;6.534;2022-08-19T03:06:26;11.93;;;7.28;;
53801;SDS011;39709;53.334;6.534;2022-08-19T03:08:51;13.70;;;7.80;;
53801;SDS011;39709;53.334;6.534;2022-08-19T03:11:25;15.35;;;7.35;;
53801;SDS011;39709;53.334;6.534;2022-08-19T03:13:53;16.25;;;7.80;;
53801;SDS011;39709;53.334;6.534;2022-08-19T03:16:23;16.50;;;7.32;;
53801;SDS011;39709;53.334;6.534;2022-08-19T03:18:50;14.00;;;7.60;;
53801;SDS011;39709;53.334;6.534;2022-08-19T03:21:17;13.27;;;7.33;;
53801;SDS011;39709;53.334;6.534;2022-08-19T03:23:45;15.90;;;7.80;;
53801;SDS011;39709;53.334;6.534;2022-08-19T03:26:11;13.82;;;7.45;;
53801;SDS011;39709;53.334;6.534;2022-08-19T03:28:36;13.65;;;7.15;;
53801;SDS011;39709;53.334;6.534;2022-08-19T03:31:06;14.43;;;7.70;;
53801;SDS011;39709;53.334;6.534;2022-08-19T03:33:36;13.55;;;7.10;;
53801;SDS011;39709;53.334;6.534;2022-08-19T03:38:43;12.82;;;7.05;;
53801;SDS011;39709;53.334;6.534;2022-08-19T03:41:15;14.90;;;7.93;;
53801;SDS011;39709;53.334;6.534;2022-08-19T03:43:45;14.10;;;8.02;;
53801;SDS011;39709;53.334;6.534;2022-08-19T03:46:18;16.00;;;8.57;;
53801;SDS011;39709;53.334;6.534;2022-08-19T03:48:50;15.18;;;7.35;;
53801;SDS011;39709;53.334;6.534;2022-08-19T03:51:21;14.68;;;7.93;;
53801;SDS011;39709;53.334;6.534;2022-08-19T03:53:50;15.97;;;7.40;;
53801;SDS011;39709;53.334;6.534;2022-08-19T03:56:17;15.00;;;7.60;;
53801;SDS011;39709;53.334;6.534;2022-08-19T03:58:43;14.18;;;7.07;;
53801;SDS011;39709;53.334;6.534;2022-08-19T04:01:17;12.38;;;6.60;;
53801;SDS011;39709;53.334;6.534;2022-08-19T04:03:45;14.38;;;7.20;;
53801;SDS011;39709;53.334;6.534;2022-08-19T04:08:40;15.30;;;7.38;;
53801;SDS011;39709;53.334;6.534;2022-08-19T04:11:13;15.07;;;6.82;;
53801;SDS011;39709;53.334;6.534;2022-08-19T04:13:41;13.05;;;6.70;;
53801;SDS011;39709;53.334;6.534;2022-08-19T04:16:08;12.23;;;6.00;;
53801;SDS011;39709;53.334;6.534;2022-08-19T04:18:35;11.60;;;6.23;;
53801;SDS011;39709;53.334;6.534;2022-08-19T04:21:02;10.75;;;5.53;;
53801;SDS011;39709;53.334;6.534;2022-08-19T04:23:29;11.20;;;6.07;;
53801;SDS011;39709;53.334;6.534;2022-08-19T04:25:56;12.70;;;5.25;;
53801;SDS011;39709;53.334;6.534;2022-08-19T04:28:22;9.77;;;5.23;;
53801;SDS011;39709;53.334;6.534;2022-08-19T04:30:49;10.65;;;5.22;;
53801;SDS011;39709;53.334;6.534;2022-08-19T04:33:18;11.05;;;5.00;;
53801;SDS011;39709;53.334;6.534;2022-08-19T04:35:47;10.07;;;5.13;;
53801;SDS011;39709;53.334;6.534;2022-08-19T04:38:14;11.55;;;4.50;;
53801;SDS011;39709;53.334;6.534;2022-08-19T04:40:45;9.20;;;3.73;;
53801;SDS011;39709;53.334;6.534;2022-08-19T04:43:32;8.18;;;3.25;;
53801;SDS011;39709;53.334;6.534;2022-08-19T04:46:04;7.90;;;3.17;;
53801;SDS011;39709;53.334;6.534;2022-08-19T04:48:34;6.75;;;2.90;;
53801;SDS011;39709;53.334;6.534;2022-08-19T04:51:00;6.55;;;2.33;;
53801;SDS011;39709;53.334;6.534;2022-08-19T04:53:27;9.57;;;2.80;;
53801;SDS011;39709;53.334;6.534;2022-08-19T04:55:58;7.68;;;2.67;;
53801;SDS011;39709;53.334;6.534;2022-08-19T04:58:27;8.57;;;3.25;;
53801;SDS011;39709;53.334;6.534;2022-08-19T05:00:53;9.68;;;3.50;;
53801;SDS011;39709;53.334;6.534;2022-08-19T05:03:19;9.40;;;4.25;;
53801;SDS011;39709;53.334;6.534;2022-08-19T05:05:46;10.70;;;4.77;;
53801;SDS011;39709;53.334;6.534;2022-08-19T05:08:15;10.10;;;4.88;;
53801;SDS011;39709;53.334;6.534;2022-08-19T05:10:46;10.27;;;5.05;;
53801;SDS011;39709;53.334;6.534;2022-08-19T05:13:14;10.90;;;5.63;;
53801;SDS011;39709;53.334;6.534;2022-08-19T05:15:41;12.98;;;5.75;;
53801;SDS011;39709;53.334;6.534;2022-08-19T05:18:08;10.63;;;5.57;;
53801;SDS011;39709;53.334;6.534;2022-08-19T05:20:52;13.73;;;6.63;;
53801;SDS011;39709;53.334;6.534;2022-08-19T05:23:37;14.15;;;6.35;;
53801;SDS011;39709;53.334;6.534;2022-08-19T05:26:03;14.23;;;6.60;;
53801;SDS011;39709;53.334;6.534;2022-08-19T05:28:29;12.50;;;6.50;;
53801;SDS011;39709;53.334;6.534;2022-08-19T05:30:58;14.43;;;6.33;;
53801;SDS011;39709;53.334;6.534;2022-08-19T05:33:23;14.02;;;7.03;;
53801;SDS011;39709;53.334;6.534;2022-08-19T05:35:49;15.57;;;7.27;;
53801;SDS011;39709;53.334;6.534;2022-08-19T05:38:16;15.52;;;6.78;;
53801;SDS011;39709;53.334;6.534;2022-08-19T05:40:42;17.10;;;7.45;;
53801;SDS011;39709;53.334;6.534;2022-08-19T05:43:13;15.03;;;7.67;;
53801;SDS011;39709;53.334;6.534;2022-08-19T05:45:42;15.25;;;7.57;;
53801;SDS011;39709;53.334;6.534;2022-08-19T05:48:11;20.08;;;8.75;;
53801;SDS011;39709;53.334;6.534;2022-08-19T05:50:38;17.15;;;7.93;;
53801;SDS011;39709;53.334;6.534;2022-08-19T05:53:06;16.33;;;8.55;;
53801;SDS011;39709;53.334;6.534;2022-08-19T05:55:34;17.73;;;8.73;;
53801;SDS011;39709;53.334;6.534;2022-08-19T05:58:00;16.83;;;8.40;;
53801;SDS011;39709;53.334;6.534;2022-08-19T06:00:26;15.05;;;8.15;;
53801;SDS011;39709;53.334;6.534;2022-08-19T06:02:52;15.55;;;8.75;;
53801;SDS011;39709;53.334;6.534;2022-08-19T06:05:19;16.27;;;8.57;;
53801;SDS011;39709;53.334;6.534;2022-08-19T06:07:45;17.55;;;9.05;;
53801;SDS011;39709;53.334;6.534;2022-08-19T06:10:11;18.85;;;9.35;;
53801;SDS011;39709;53.334;6.534;2022-08-19T06:12:38;16.70;;;9.17;;
53801;SDS011;39709;53.334;6.534;2022-08-19T06:15:08;17.60;;;9.73;;
53801;SDS011;39709;53.334;6.534;2022-08-19T06:17:35;18.73;;;8.20;;
53801;SDS011;39709;53.334;6.534;2022-08-19T06:20:03;18.53;;;9.00;;
53801;SDS011;39709;53.334;6.534;2022-08-19T06:22:45;15.40;;;7.93;;
53801;SDS011;39709;53.334;6.534;2022-08-19T06:25:14;16.75;;;8.63;;
53801;SDS011;39709;53.334;6.534;2022-08-19T06:27:42;16.50;;;8.48;;
53801;SDS011;39709;53.334;6.534;2022-08-19T06:30:08;17.83;;;9.32;;
53801;SDS011;39709;53.334;6.534;2022-08-19T06:32:35;14.97;;;8.00;;
53801;SDS011;39709;53.334;6.534;2022-08-19T06:35:00;16.67;;;9.02;;
53801;SDS011;39709;53.334;6.534;2022-08-19T06:37:26;17.37;;;8.90;;
53801;SDS011;39709;53.334;6.534;2022-08-19T06:39:52;15.93;;;8.60;;
53801;SDS011;39709;53.334;6.534;2022-08-19T06:42:17;16.83;;;8.97;;
53801;SDS011;39709;53.334;6.534;2022-08-19T06:44:44;17.65;;;8.52;;
53801;SDS011;39709;53.334;6.534;2022-08-19T06:47:12;15.88;;;8.63;;
53801;SDS011;39709;53.334;6.534;2022-08-19T06:49:40;15.30;;;8.30;;
53801;SDS011;39709;53.334;6.534;2022-08-19T06:52:06;11.85;;;6.63;;
53801;SDS011;39709;53.334;6.534;2022-08-19T06:54:32;14.63;;;7.10;;
53801;SDS011;39709;53.334;6.534;2022-08-19T06:56:59;15.75;;;7.25;;
53801;SDS011;39709;53.334;6.534;2022-08-19T06:59:29;14.77;;;7.40;;
53801;SDS011;39709;53.334;6.534;2022-08-19T07:01:58;14.43;;;8.23;;
53801;SDS011;39709;53.334;6.534;2022-08-19T07:04:27;15.32;;;7.25;;
53801;SDS011;39709;53.334;6.534;2022-08-19T07:06:56;14.40;;;8.00;;
53801;SDS011;39709;53.334;6.534;2022-08-19T07:09:43;15.07;;;8.00;;
53801;SDS011;39709;53.334;6.534;2022-08-19T07:12:10;16.17;;;7.00;;
53801;SDS011;39709;53.334;6.534;2022-08-19T07:14:39;14.13;;;7.10;;
53801;SDS011;39709;53.334;6.534;2022-08-19T07:17:06;13.85;;;7.60;;
53801;SDS011;39709;53.334;6.534;2022-08-19T07:19:36;18.23;;;8.88;;
53801;SDS011;39709;53.334;6.534;2022-08-19T07:22:04;13.65;;;7.82;;
53801;SDS011;39709;53.334;6.534;2022-08-19T07:24:31;13.97;;;7.67;;
53801;SDS011;39709;53.334;6.534;2022-08-19T07:26:58;11.75;;;7.00;;
53801;SDS011;39709;53.334;6.534;2022-08-19T07:29:27;11.70;;;7.03;;
53801;SDS011;39709;53.334;6.534;2022-08-19T07:31:55;14.98;;;7.10;;
53801;SDS011;39709;53.334;6.534;2022-08-19T07:34:21;11.85;;;7.38;;
53801;SDS011;39709;53.334;6.534;2022-08-19T07:36:48;14.83;;;7.60;;
53801;SDS011;39709;53.334;6.534;2022-08-19T07:39:22;15.43;;;8.27;;
53801;SDS011;39709;53.334;6.534;2022-08-19T07:41:50;14.20;;;7.88;;
53801;SDS011;39709;53.334;6.534;2022-08-19T07:44:17;14.02;;;7.47;;
53801;SDS011;39709;53.334;6.534;2022-08-19T07:46:46;14.60;;;8.98;;
53801;SDS011;39709;53.334;6.534;2022-08-19T07:49:15;16.97;;;9.37;;
53801;SDS011;39709;53.334;6.534;2022-08-19T07:51:48;12.32;;;7.68;;
53801;SDS011;39709;53.334;6.534;2022-08-19T07:54:16;11.38;;;6.65;;
53801;SDS011;39709;53.334;6.534;2022-08-19T07:56:42;15.48;;;8.60;;
53801;SDS011;39709;53.334;6.534;2022-08-19T07:59:08;12.77;;;7.80;;
53801;SDS011;39709;53.334;6.534;2022-08-19T08:01:34;12.87;;;7.90;;
53801;SDS011;39709;53.334;6.534;2022-08-19T08:04:00;14.75;;;8.25;;
53801;SDS011;39709;53.334;6.534;2022-08-19T08:06:45;12.95;;;6.93;;
53801;SDS011;39709;53.334;6.534;2022-08-19T08:09:32;13.73;;;8.50;;
53801;SDS011;39709;53.334;6.534;2022-08-19T08:12:10;17.17;;;8.48;;
53801;SDS011;39709;53.334;6.534;2022-08-19T08:14:41;15.57;;;8.80;;
53801;SDS011;39709;53.334;6.534;2022-08-19T08:17:13;14.27;;;9.00;;
53801;SDS011;39709;53.334;6.534;2022-08-19T08:19:41;10.68;;;6.30;;
53801;SDS011;39709;53.334;6.534;2022-08-19T08:22:07;13.00;;;8.48;;
53801;SDS011;39709;53.334;6.534;2022-08-19T08:24:54;15.63;;;9.75;;
53801;SDS011;39709;53.334;6.534;2022-08-19T08:27:23;15.27;;;10.83;;
53801;SDS011;39709;53.334;6.534;2022-08-19T08:29:49;15.77;;;9.90;;
53801;SDS011;39709;53.334;6.534;2022-08-19T08:32:14;15.77;;;9.85;;
53801;SDS011;39709;53.334;6.534;2022-08-19T08:34:41;14.17;;;8.73;;
53801;SDS011;39709;53.334;6.534;2022-08-19T08:37:07;14.55;;;9.00;;
53801;SDS011;39709;53.334;6.534;2022-08-19T08:39:33;13.68;;;8.43;;
53801;SDS011;39709;53.334;6.534;2022-08-19T08:44:55;13.90;;;8.93;;
53801;SDS011;39709;53.334;6.534;2022-08-19T08:47:24;11.27;;;6.97;;
53801;SDS011;39709;53.334;6.534;2022-08-19T08:49:58;11.13;;;7.15;;
53801;SDS011;39709;53.334;6.534;2022-08-19T08:52:45;11.77;;;8.23;;
53801;SDS011;39709;53.334;6.534;2022-08-19T08:55:18;14.00;;;8.95;;
53801;SDS011;39709;53.334;6.534;2022-08-19T09:00:24;14.57;;;8.27;;
53801;SDS011;39709;53.334;6.534;2022-08-19T09:02:52;13.80;;;8.18;;
53801;SDS011;39709;53.334;6.534;2022-08-19T09:05:22;11.60;;;7.93;;
53801;SDS011;39709;53.334;6.534;2022-08-19T09:08:02;14.55;;;9.23;;
53801;SDS011;39709;53.334;6.534;2022-08-19T09:10:40;15.98;;;9.65;;
53801;SDS011;39709;53.334;6.534;2022-08-19T09:15:48;12.48;;;8.23;;
53801;SDS011;39709;53.334;6.534;2022-08-19T09:18:18;15.03;;;9.77;;
53801;SDS011;39709;53.334;6.534;2022-08-19T09:20:44;14.40;;;9.27;;
53801;SDS011;39709;53.334;6.534;2022-08-19T09:23:11;17.10;;;8.98;;
53801;SDS011;39709;53.334;6.534;2022-08-19T09:25:37;14.90;;;9.67;;
53801;SDS011;39709;53.334;6.534;2022-08-19T09:28:05;15.15;;;10.27;;
53801;SDS011;39709;53.334;6.534;2022-08-19T09:30:32;15.82;;;10.98;;
53801;SDS011;39709;53.334;6.534;2022-08-19T09:33:04;14.30;;;10.13;;
53801;SDS011;39709;53.334;6.534;2022-08-19T09:35:31;18.10;;;11.47;;
53801;SDS011;39709;53.334;6.534;2022-08-19T09:37:58;14.15;;;8.90;;
53801;SDS011;39709;53.334;6.534;2022-08-19T09:40:24;13.27;;;8.57;;
53801;SDS011;39709;53.334;6.534;2022-08-19T09:42:51;13.65;;;9.35;;
53801;SDS011;39709;53.334;6.534;2022-08-19T09:45:18;14.07;;;9.73;;
53801;SDS011;39709;53.334;6.534;2022-08-19T09:47:46;16.77;;;10.00;;
53801;SDS011;39709;53.334;6.534;2022-08-19T09:50:13;16.60;;;9.35;;
53801;SDS011;39709;53.334;6.534;2022-08-19T09:52:39;15.98;;;10.40;;
53801;SDS011;39709;53.334;6.534;2022-08-19T09:55:08;12.33;;;6.93;;
53801;SDS011;39709;53.334;6.534;2022-08-19T09:57:35;12.88;;;7.95;;
53801;SDS011;39709;53.334;6.534;2022-08-19T10:00:01;14.70;;;8.90;;
53801;SDS011;39709;53.334;6.534;2022-08-19T10:02:28;13.80;;;9.30;;
53801;SDS011;39709;53.334;6.534;2022-08-19T10:04:54;15.67;;;10.90;;
53801;SDS011;39709;53.334;6.534;2022-08-19T10:07:38;16.65;;;10.35;;
53801;SDS011;39709;53.334;6.534;2022-08-19T10:10:04;15.43;;;10.93;;
53801;SDS011;39709;53.334;6.534;2022-08-19T10:12:31;15.52;;;10.05;;
53801;SDS011;39709;53.334;6.534;2022-08-19T10:14:58;11.48;;;7.07;;
53801;SDS011;39709;53.334;6.534;2022-08-19T10:17:25;14.77;;;9.40;;
53801;SDS011;39709;53.334;6.534;2022-08-19T10:19:51;18.33;;;11.50;;
53801;SDS011;39709;53.334;6.534;2022-08-19T10:22:18;16.50;;;10.23;;
53801;SDS011;39709;53.334;6.534;2022-08-19T10:24:45;15.05;;;9.73;;
53801;SDS011;39709;53.334;6.534;2022-08-19T10:27:11;10.38;;;5.75;;
53801;SDS011;39709;53.334;6.534;2022-08-19T10:29:38;14.88;;;9.20;;
53801;SDS011;39709;53.334;6.534;2022-08-19T10:32:05;15.80;;;9.87;;
53801;SDS011;39709;53.334;6.534;2022-08-19T10:34:33;15.97;;;9.47;;
53801;SDS011;39709;53.334;6.534;2022-08-19T10:37:01;14.25;;;9.05;;
53801;SDS011;39709;53.334;6.534;2022-08-19T10:39:31;19.08;;;13.05;;
53801;SDS011;39709;53.334;6.534;2022-08-19T10:41:58;19.52;;;11.35;;
53801;SDS011;39709;53.334;6.534;2022-08-19T10:44:25;17.10;;;10.45;;
53801;SDS011;39709;53.334;6.534;2022-08-19T10:46:50;15.00;;;10.40;;
53801;SDS011;39709;53.334;6.534;2022-08-19T10:49:17;17.70;;;11.77;;
53801;SDS011;39709;53.334;6.534;2022-08-19T10:51:44;14.15;;;9.70;;
53801;SDS011;39709;53.334;6.534;2022-08-19T10:54:28;14.35;;;9.23;;
53801;SDS011;39709;53.334;6.534;2022-08-19T10:57:13;15.52;;;10.40;;
53801;SDS011;39709;53.334;6.534;2022-08-19T10:59:40;17.10;;;11.97;;
53801;SDS011;39709;53.334;6.534;2022-08-19T11:02:07;16.55;;;9.50;;
53801;SDS011;39709;53.334;6.534;2022-08-19T11:04:35;16.13;;;11.80;;
53801;SDS011;39709;53.334;6.534;2022-08-19T11:07:02;21.75;;;15.52;;
53801;SDS011;39709;53.334;6.534;2022-08-19T11:09:29;18.13;;;14.17;;
53801;SDS011;39709;53.334;6.534;2022-08-19T11:11:56;19.00;;;13.85;;
53801;SDS011;39709;53.334;6.534;2022-08-19T11:14:22;22.13;;;14.93;;
53801;SDS011;39709;53.334;6.534;2022-08-19T11:16:51;14.27;;;10.38;;
53801;SDS011;39709;53.334;6.534;2022-08-19T11:19:21;16.60;;;11.43;;
53801;SDS011;39709;53.334;6.534;2022-08-19T11:21:48;17.42;;;11.95;;
53801;SDS011;39709;53.334;6.534;2022-08-19T11:24:19;19.17;;;15.00;;
53801;SDS011;39709;53.334;6.534;2022-08-19T11:26:47;21.98;;;15.13;;
53801;SDS011;39709;53.334;6.534;2022-08-19T11:29:15;22.80;;;15.68;;
53801;SDS011;39709;53.334;6.534;2022-08-19T11:31:43;23.33;;;14.73;;
53801;SDS011;39709;53.334;6.534;2022-08-19T11:34:12;19.92;;;14.20;;
53801;SDS011;39709;53.334;6.534;2022-08-19T11:36:42;21.80;;;13.10;;
53801;SDS011;39709;53.334;6.534;2022-08-19T11:39:10;18.52;;;13.00;;
53801;SDS011;39709;53.334;6.534;2022-08-19T11:41:37;18.17;;;13.35;;
53801;SDS011;39709;53.334;6.534;2022-08-19T11:44:03;18.83;;;12.53;;
53801;SDS011;39709;53.334;6.534;2022-08-19T11:46:29;17.45;;;12.77;;
53801;SDS011;39709;53.334;6.534;2022-08-19T11:48:56;20.42;;;13.60;;
53801;SDS011;39709;53.334;6.534;2022-08-19T11:51:24;18.60;;;14.35;;
53801;SDS011;39709;53.334;6.534;2022-08-19T11:53:52;16.13;;;12.30;;
53801;SDS011;39709;53.334;6.534;2022-08-19T11:56:19;19.93;;;14.50;;
53801;SDS011;39709;53.334;6.534;2022-08-19T11:58:45;19.30;;;13.35;;
53801;SDS011;39709;53.334;6.534;2022-08-19T12:01:12;16.98;;;13.30;;
53801;SDS011;39709;53.334;6.534;2022-08-19T12:03:47;16.52;;;11.63;;
53801;SDS011;39709;53.334;6.534;2022-08-19T12:06:15;17.58;;;13.00;;
53801;SDS011;39709;53.334;6.534;2022-08-19T12:08:43;18.30;;;12.33;;
53801;SDS011;39709;53.334;6.534;2022-08-19T12:11:10;18.75;;;13.82;;
53801;SDS011;39709;53.334;6.534;2022-08-19T12:13:37;19.60;;;12.85;;
53801;SDS011;39709;53.334;6.534;2022-08-19T12:16:22;17.85;;;12.98;;
53801;SDS011;39709;53.334;6.534;2022-08-19T12:18:50;20.88;;;13.63;;
53801;SDS011;39709;53.334;6.534;2022-08-19T12:21:18;16.30;;;12.20;;
53801;SDS011;39709;53.334;6.534;2022-08-19T12:23:47;17.20;;;12.38;;
53801;SDS011;39709;53.334;6.534;2022-08-19T12:26:14;17.50;;;12.27;;
53801;SDS011;39709;53.334;6.534;2022-08-19T12:28:41;14.70;;;11.38;;
53801;SDS011;39709;53.334;6.534;2022-08-19T12:31:07;19.05;;;12.45;;
53801;SDS011;39709;53.334;6.534;2022-08-19T12:33:33;17.80;;;13.00;;
53801;SDS011;39709;53.334;6.534;2022-08-19T12:36:00;17.10;;;12.77;;
53801;SDS011;39709;53.334;6.534;2022-08-19T12:38:31;17.60;;;11.95;;
53801;SDS011;39709;53.334;6.534;2022-08-19T12:40:57;15.10;;;10.65;;
53801;SDS011;39709;53.334;6.534;2022-08-19T12:43:23;14.93;;;11.10;;
53801;SDS011;39709;53.334;6.534;2022-08-19T12:45:49;15.40;;;10.93;;
53801;SDS011;39709;53.334;6.534;2022-08-19T12:48:15;16.58;;;11.70;;
53801;SDS011;39709;53.334;6.534;2022-08-19T12:50:41;20.70;;;13.47;;
53801;SDS011;39709;53.334;6.534;2022-08-19T12:53:10;17.65;;;10.00;;
53801;SDS011;39709;53.334;6.534;2022-08-19T12:55:36;22.30;;;11.30;;
53801;SDS011;39709;53.334;6.534;2022-08-19T12:58:02;24.00;;;10.70;;
53801;SDS011;39709;53.334;6.534;2022-08-19T13:00:29;20.85;;;10.68;;
53801;SDS011;39709;53.334;6.534;2022-08-19T13:02:57;22.67;;;11.60;;
53801;SDS011;39709;53.334;6.534;2022-08-19T13:05:26;24.83;;;12.95;;
53801;SDS011;39709;53.334;6.534;2022-08-19T13:07:55;19.52;;;11.57;;
53801;SDS011;39709;53.334;6.534;2022-08-19T13:10:23;25.77;;;14.13;;
53801;SDS011;39709;53.334;6.534;2022-08-19T13:12:52;24.00;;;14.05;;
53801;SDS011;39709;53.334;6.534;2022-08-19T13:15:19;26.10;;;14.43;;
53801;SDS011;39709;53.334;6.534;2022-08-19T13:17:47;22.92;;;13.85;;
53801;SDS011;39709;53.334;6.534;2022-08-19T13:20:14;24.98;;;14.75;;
53801;SDS011;39709;53.334;6.534;2022-08-19T13:22:43;22.75;;;14.10;;
53801;SDS011;39709;53.334;6.534;2022-08-19T13:25:10;23.10;;;13.70;;
53801;SDS011;39709;53.334;6.534;2022-08-19T13:27:36;27.90;;;13.07;;
53801;SDS011;39709;53.334;6.534;2022-08-19T13:30:03;24.45;;;14.55;;
53801;SDS011;39709;53.334;6.534;2022-08-19T13:33:05;25.42;;;13.32;;
53801;SDS011;39709;53.334;6.534;2022-08-19T13:38:11;26.40;;;15.70;;
53801;SDS011;39709;53.334;6.534;2022-08-19T13:40:38;25.03;;;15.37;;
53801;SDS011;39709;53.334;6.534;2022-08-19T13:43:05;25.63;;;13.93;;
53801;SDS011;39709;53.334;6.534;2022-08-19T13:45:32;21.58;;;12.23;;
53801;SDS011;39709;53.334;6.534;2022-08-19T13:47:59;20.83;;;12.30;;
53801;SDS011;39709;53.334;6.534;2022-08-19T13:50:30;18.92;;;11.77;;
53801;SDS011;39709;53.334;6.534;2022-08-19T13:52:56;21.03;;;13.77;;
53801;SDS011;39709;53.334;6.534;2022-08-19T13:55:23;19.98;;;11.45;;
53801;SDS011;39709;53.334;6.534;2022-08-19T13:57:54;22.20;;;13.50;;
53801;SDS011;39709;53.334;6.534;2022-08-19T14:00:22;19.20;;;12.90;;
53801;SDS011;39709;53.334;6.534;2022-08-19T14:02:51;18.98;;;11.05;;
53801;SDS011;39709;53.334;6.534;2022-08-19T14:05:19;18.70;;;10.50;;
53801;SDS011;39709;53.334;6.534;2022-08-19T14:07:45;16.70;;;10.40;;
53801;SDS011;39709;53.334;6.534;2022-08-19T14:10:13;21.23;;;10.05;;
53801;SDS011;39709;53.334;6.534;2022-08-19T14:12:40;20.45;;;11.10;;
53801;SDS011;39709;53.334;6.534;2022-08-19T14:15:07;18.48;;;9.85;;
53801;SDS011;39709;53.334;6.534;2022-08-19T14:17:34;18.67;;;10.37;;
53801;SDS011;39709;53.334;6.534;2022-08-19T14:20:07;17.48;;;10.38;;
53801;SDS011;39709;53.334;6.534;2022-08-19T14:22:35;17.13;;;10.30;;
53801;SDS011;39709;53.334;6.534;2022-08-19T14:25:03;15.93;;;10.30;;
53801;SDS011;39709;53.334;6.534;2022-08-19T14:27:30;16.50;;;9.38;;
53801;SDS011;39709;53.334;6.534;2022-08-19T14:29:58;16.33;;;9.47;;
53801;SDS011;39709;53.334;6.534;2022-08-19T14:32:24;16.73;;;9.43;;
53801;SDS011;39709;53.334;6.534;2022-08-19T14:34:52;16.48;;;9.85;;
53801;SDS011;39709;53.334;6.534;2022-08-19T14:37:18;19.25;;;10.63;;
53801;SDS011;39709;53.334;6.534;2022-08-19T14:39:44;19.97;;;9.50;;
53801;SDS011;39709;53.334;6.534;2022-08-19T14:42:10;18.60;;;9.80;;
53801;SDS011;39709;53.334;6.534;2022-08-19T14:44:36;13.95;;;8.90;;
53801;SDS011;39709;53.334;6.534;2022-08-19T14:47:03;19.38;;;11.13;;
53801;SDS011;39709;53.334;6.534;2022-08-19T14:49:31;15.97;;;10.40;;
53801;SDS011;39709;53.334;6.534;2022-08-19T14:51:58;18.90;;;10.82;;
53801;SDS011;39709;53.334;6.534;2022-08-19T14:54:24;18.98;;;12.07;;